»·PEaware :: N533S KSNA-KBUR

N533S :: KSNA-KBUR

FLIGHT INFORMATION

Flight Status: Arrived
Operator: Privately registered:
United States
More flights under this callsign
Pilot: Mark H. (22323)
Aircraft: BEECH AIRCRAFT BONANZA
(BE35)
More flights by this aircraft type
Origin: KSNA John Wayne-Orange Co
United States
Destination: KBUR Bob Hope-Burbank
United States
More flights between these airports :: More routes between these airports
Route: +SLI V23 POPPR SMO125R SMO SMO311R SILEX
File this flight plan on PilotEdge
Remarks: VECTORS TO ILS 08 - I3 SCENARIO
Altitude:
(Current/Filed)
3,000ft
Speed:
(Current/Filed)
155kts
Departed: 02-Dec-18 02:46 PM
Arrived: 02-Dec-18 03:19 PM
Distance/Time
Traveled:
40nm/0:33
Distance/Time
To Go:
Arrived

Flight Plot

Page will automatically refresh every two minutes.


Map Options




Map Legend


Flown Route
Filed Route
Departure Airport
Arrival Airport
Navaid (VOR, NDB)
Fix

Horizontal Profiles

Position Reports

Time Latitude Longitude Heading Altitude Ground
Speed
02-Dec-18 14:30 34.200204 -118.358744 263 780ft 0kts
02-Dec-18 14:31 34.200204 -118.358744 263 780ft 0kts
02-Dec-18 14:32 33.676024 -117.871116 40 59ft 0kts
02-Dec-18 14:33 33.676024 -117.871116 40 59ft 0kts
02-Dec-18 14:34 33.676039 -117.871101 40 59ft 0kts
02-Dec-18 14:35 33.676048 -117.871091 40 59ft 0kts
02-Dec-18 14:36 33.676048 -117.871091 40 59ft 0kts
02-Dec-18 14:37 33.676048 -117.871091 40 59ft 0kts
02-Dec-18 14:38 33.676048 -117.871091 40 59ft 0kts
02-Dec-18 14:39 33.676048 -117.871091 40 59ft 0kts
02-Dec-18 14:40 33.676048 -117.871091 40 59ft 0kts
02-Dec-18 14:41 33.676048 -117.871091 40 59ft 0kts
02-Dec-18 14:42 33.676048 -117.871091 40 59ft 0kts
02-Dec-18 14:43 33.676048 -117.871091 40 59ft 0kts
02-Dec-18 14:44 33.676048 -117.871091 40 59ft 0kts
02-Dec-18 14:45 33.676048 -117.871091 40 59ft 0kts
02-Dec-18 14:46 33.679485 -117.867998 23 59ft 34kts
02-Dec-18 14:47 33.681220 -117.866483 106 59ft 0kts
02-Dec-18 14:48 33.679785 -117.866223 208 59ft 39kts
02-Dec-18 14:49 33.660258 -117.883260 231 553ft 112kts
02-Dec-18 14:50 33.639097 -117.915193 232 1270ft 133kts
02-Dec-18 14:51 33.615454 -117.950051 231 1968ft 139kts
02-Dec-18 14:52 33.588298 -117.989849 238 2003ft 167kts
02-Dec-18 14:53 33.612071 -118.029264 321 2288ft 160kts
02-Dec-18 14:54 33.643873 -118.062804 316 2766ft 152kts
02-Dec-18 14:55 33.673506 -118.096083 315 3246ft 147kts
02-Dec-18 14:56 33.702344 -118.128720 315 3728ft 143kts
02-Dec-18 14:57 33.731117 -118.161375 314 3994ft 152kts
02-Dec-18 14:58 33.761984 -118.196184 314 3993ft 155kts
02-Dec-18 14:59 33.792942 -118.231370 313 3986ft 156kts
02-Dec-18 15:00 33.823489 -118.266164 313 3970ft 152kts
02-Dec-18 15:01 33.853611 -118.299605 317 3958ft 151kts
02-Dec-18 15:02 33.884922 -118.330445 316 3945ft 149kts
02-Dec-18 15:03 33.915685 -118.361275 317 3932ft 147kts
02-Dec-18 15:04 33.945907 -118.391656 318 3919ft 147kts
02-Dec-18 15:05 33.976597 -118.422528 319 3906ft 147kts
02-Dec-18 15:06 34.006446 -118.452613 320 3990ft 144kts
02-Dec-18 15:07 34.039088 -118.479788 326 3979ft 147kts
02-Dec-18 15:08 34.072099 -118.506666 327 3960ft 142kts
02-Dec-18 15:09 34.103618 -118.532241 327 3944ft 139kts
02-Dec-18 15:10 34.134309 -118.557137 327 3946ft 138kts
02-Dec-18 15:11 34.163898 -118.581335 327 3937ft 129kts
02-Dec-18 15:12 34.190201 -118.578202 61 3914ft 121kts
02-Dec-18 15:13 34.200474 -118.543438 82 3695ft 103kts
02-Dec-18 15:14 34.200376 -118.512932 92 3191ft 96kts
02-Dec-18 15:15 34.199229 -118.481938 87 2676ft 96kts
02-Dec-18 15:16 34.198862 -118.450813 88 2163ft 96kts
02-Dec-18 15:17 34.198499 -118.419736 88 1656ft 96kts
02-Dec-18 15:18 34.194862 -118.389036 119 1250ft 94kts
02-Dec-18 15:19 34.183398 -118.362243 109 1264ft 93kts
02-Dec-18 15:20 34.181166 -118.333778 17 1245ft 84kts
02-Dec-18 15:21 34.196750 -118.338581 285 1100ft 66kts
02-Dec-18 15:22 34.198245 -118.355224 339 780ft 11kts
02-Dec-18 15:23 34.198929 -118.357734 303 780ft 14kts
02-Dec-18 15:24 34.200067 -118.358892 270 780ft 0kts

Navigation Log

Ident Type
Flight plan parsing failed, navigation log unavailable